sensor_id;sensor_type;location;lat;lon;timestamp;P1;durP1;ratioP1;P2;durP2;ratioP2
635;SDS011;302;50.206;8.196;2023-12-07T00:02:21;12.43;;;11.13;;
635;SDS011;302;50.206;8.196;2023-12-07T00:04:47;16.17;;;12.67;;
635;SDS011;302;50.206;8.196;2023-12-07T00:07:12;13.83;;;10.77;;
635;SDS011;302;50.206;8.196;2023-12-07T00:09:37;14.53;;;11.60;;
635;SDS011;302;50.206;8.196;2023-12-07T00:12:02;13.02;;;11.65;;
635;SDS011;302;50.206;8.196;2023-12-07T00:14:27;15.00;;;12.00;;
635;SDS011;302;50.206;8.196;2023-12-07T00:16:53;12.65;;;10.75;;
635;SDS011;302;50.206;8.196;2023-12-07T00:19:19;13.68;;;11.25;;
635;SDS011;302;50.206;8.196;2023-12-07T00:21:44;16.42;;;11.57;;
635;SDS011;302;50.206;8.196;2023-12-07T00:24:09;15.27;;;11.30;;
635;SDS011;302;50.206;8.196;2023-12-07T00:26:34;13.07;;;11.02;;
635;SDS011;302;50.206;8.196;2023-12-07T00:28:59;13.60;;;11.20;;
635;SDS011;302;50.206;8.196;2023-12-07T00:31:24;14.27;;;10.80;;
635;SDS011;302;50.206;8.196;2023-12-07T00:33:49;13.45;;;11.02;;
635;SDS011;302;50.206;8.196;2023-12-07T00:36:15;16.73;;;11.87;;
635;SDS011;302;50.206;8.196;2023-12-07T00:38:40;15.67;;;12.43;;
635;SDS011;302;50.206;8.196;2023-12-07T00:41:06;14.20;;;12.30;;
635;SDS011;302;50.206;8.196;2023-12-07T00:43:31;14.43;;;11.73;;
635;SDS011;302;50.206;8.196;2023-12-07T00:45:56;15.90;;;11.57;;
635;SDS011;302;50.206;8.196;2023-12-07T00:48:22;13.93;;;11.48;;
635;SDS011;302;50.206;8.196;2023-12-07T00:50:47;13.70;;;11.57;;
635;SDS011;302;50.206;8.196;2023-12-07T00:53:13;17.10;;;11.53;;
635;SDS011;302;50.206;8.196;2023-12-07T00:55:38;14.20;;;11.00;;
635;SDS011;302;50.206;8.196;2023-12-07T00:58:05;13.40;;;11.48;;
635;SDS011;302;50.206;8.196;2023-12-07T01:00:30;16.13;;;11.87;;
635;SDS011;302;50.206;8.196;2023-12-07T01:02:55;13.23;;;11.10;;
635;SDS011;302;50.206;8.196;2023-12-07T01:05:20;13.38;;;11.30;;
635;SDS011;302;50.206;8.196;2023-12-07T01:07:45;14.73;;;10.80;;
635;SDS011;302;50.206;8.196;2023-12-07T01:10:11;13.88;;;11.75;;
635;SDS011;302;50.206;8.196;2023-12-07T01:12:36;12.77;;;10.50;;
635;SDS011;302;50.206;8.196;2023-12-07T01:15:01;15.60;;;11.40;;
635;SDS011;302;50.206;8.196;2023-12-07T01:17:26;13.13;;;11.73;;
635;SDS011;302;50.206;8.196;2023-12-07T01:19:52;16.87;;;12.23;;
635;SDS011;302;50.206;8.196;2023-12-07T01:22:17;14.33;;;11.67;;
635;SDS011;302;50.206;8.196;2023-12-07T01:24:42;13.23;;;11.80;;
635;SDS011;302;50.206;8.196;2023-12-07T01:27:08;13.68;;;11.80;;
635;SDS011;302;50.206;8.196;2023-12-07T01:29:34;15.00;;;12.10;;
635;SDS011;302;50.206;8.196;2023-12-07T01:31:59;15.17;;;12.47;;
635;SDS011;302;50.206;8.196;2023-12-07T01:34:24;16.48;;;12.80;;
635;SDS011;302;50.206;8.196;2023-12-07T01:36:49;16.13;;;12.90;;
635;SDS011;302;50.206;8.196;2023-12-07T01:39:14;19.55;;;14.25;;
635;SDS011;302;50.206;8.196;2023-12-07T01:41:40;15.90;;;13.20;;
635;SDS011;302;50.206;8.196;2023-12-07T01:44:05;14.07;;;11.60;;
635;SDS011;302;50.206;8.196;2023-12-07T01:46:31;13.77;;;11.10;;
635;SDS011;302;50.206;8.196;2023-12-07T01:48:56;13.98;;;11.38;;
635;SDS011;302;50.206;8.196;2023-12-07T01:51:22;15.90;;;11.50;;
635;SDS011;302;50.206;8.196;2023-12-07T01:53:47;14.80;;;12.03;;
635;SDS011;302;50.206;8.196;2023-12-07T01:56:13;13.07;;;11.50;;
635;SDS011;302;50.206;8.196;2023-12-07T01:58:38;12.67;;;11.30;;
635;SDS011;302;50.206;8.196;2023-12-07T02:01:04;13.90;;;11.13;;
635;SDS011;302;50.206;8.196;2023-12-07T02:03:31;13.07;;;11.77;;
635;SDS011;302;50.206;8.196;2023-12-07T02:05:56;14.52;;;10.90;;
635;SDS011;302;50.206;8.196;2023-12-07T02:08:22;16.10;;;12.70;;
635;SDS011;302;50.206;8.196;2023-12-07T02:10:47;17.67;;;12.47;;
635;SDS011;302;50.206;8.196;2023-12-07T02:13:12;15.13;;;11.83;;
635;SDS011;302;50.206;8.196;2023-12-07T02:15:38;13.10;;;11.10;;
635;SDS011;302;50.206;8.196;2023-12-07T02:18:10;14.40;;;11.67;;
635;SDS011;302;50.206;8.196;2023-12-07T02:20:40;14.40;;;12.18;;
635;SDS011;302;50.206;8.196;2023-12-07T02:23:06;14.40;;;11.35;;
635;SDS011;302;50.206;8.196;2023-12-07T02:25:35;15.43;;;12.75;;
635;SDS011;302;50.206;8.196;2023-12-07T02:28:02;18.20;;;12.10;;
635;SDS011;302;50.206;8.196;2023-12-07T02:30:27;14.87;;;12.50;;
635;SDS011;302;50.206;8.196;2023-12-07T02:32:52;13.50;;;11.20;;
635;SDS011;302;50.206;8.196;2023-12-07T02:35:18;13.07;;;11.43;;
635;SDS011;302;50.206;8.196;2023-12-07T02:37:44;15.60;;;11.40;;
635;SDS011;302;50.206;8.196;2023-12-07T02:40:09;15.43;;;11.02;;
635;SDS011;302;50.206;8.196;2023-12-07T02:42:36;14.48;;;11.13;;
635;SDS011;302;50.206;8.196;2023-12-07T02:45:03;14.63;;;11.57;;
635;SDS011;302;50.206;8.196;2023-12-07T02:47:28;12.43;;;10.30;;
635;SDS011;302;50.206;8.196;2023-12-07T02:49:53;12.20;;;10.83;;
635;SDS011;302;50.206;8.196;2023-12-07T02:52:18;17.63;;;12.37;;
635;SDS011;302;50.206;8.196;2023-12-07T02:54:44;13.73;;;11.03;;
635;SDS011;302;50.206;8.196;2023-12-07T02:57:09;13.80;;;12.07;;
635;SDS011;302;50.206;8.196;2023-12-07T02:59:34;14.10;;;11.98;;
635;SDS011;302;50.206;8.196;2023-12-07T03:01:59;15.57;;;11.40;;
635;SDS011;302;50.206;8.196;2023-12-07T03:04:24;16.95;;;11.95;;
635;SDS011;302;50.206;8.196;2023-12-07T03:06:49;12.82;;;10.85;;
635;SDS011;302;50.206;8.196;2023-12-07T03:09:15;14.90;;;11.05;;
635;SDS011;302;50.206;8.196;2023-12-07T03:11:40;15.63;;;12.37;;
635;SDS011;302;50.206;8.196;2023-12-07T03:14:05;12.77;;;10.20;;
635;SDS011;302;50.206;8.196;2023-12-07T03:16:30;14.70;;;10.60;;
635;SDS011;302;50.206;8.196;2023-12-07T03:18:55;15.70;;;10.37;;
635;SDS011;302;50.206;8.196;2023-12-07T03:21:20;12.68;;;10.02;;
635;SDS011;302;50.206;8.196;2023-12-07T03:23:45;13.20;;;10.40;;
635;SDS011;302;50.206;8.196;2023-12-07T03:26:11;13.65;;;11.18;;
635;SDS011;302;50.206;8.196;2023-12-07T03:28:36;12.88;;;10.60;;
635;SDS011;302;50.206;8.196;2023-12-07T03:31:02;13.55;;;10.18;;
635;SDS011;302;50.206;8.196;2023-12-07T03:33:27;13.80;;;11.27;;
635;SDS011;302;50.206;8.196;2023-12-07T03:35:53;13.30;;;10.65;;
635;SDS011;302;50.206;8.196;2023-12-07T03:38:18;13.60;;;11.53;;
635;SDS011;302;50.206;8.196;2023-12-07T03:40:43;13.40;;;11.40;;
635;SDS011;302;50.206;8.196;2023-12-07T03:43:12;14.20;;;11.20;;
635;SDS011;302;50.206;8.196;2023-12-07T03:45:37;14.27;;;10.60;;
635;SDS011;302;50.206;8.196;2023-12-07T03:48:03;15.27;;;11.80;;
635;SDS011;302;50.206;8.196;2023-12-07T03:50:28;13.13;;;11.27;;
635;SDS011;302;50.206;8.196;2023-12-07T03:52:54;14.83;;;11.10;;
635;SDS011;302;50.206;8.196;2023-12-07T03:55:19;14.23;;;12.73;;
635;SDS011;302;50.206;8.196;2023-12-07T03:57:44;12.67;;;10.97;;
635;SDS011;302;50.206;8.196;2023-12-07T04:00:10;11.88;;;10.18;;
635;SDS011;302;50.206;8.196;2023-12-07T04:02:36;11.82;;;10.55;;
635;SDS011;302;50.206;8.196;2023-12-07T04:05:01;10.63;;;9.50;;
635;SDS011;302;50.206;8.196;2023-12-07T04:07:27;10.17;;;8.83;;
635;SDS011;302;50.206;8.196;2023-12-07T04:09:53;12.35;;;10.38;;
635;SDS011;302;50.206;8.196;2023-12-07T04:12:18;14.43;;;9.63;;
635;SDS011;302;50.206;8.196;2023-12-07T04:14:45;15.38;;;12.18;;
635;SDS011;302;50.206;8.196;2023-12-07T04:17:10;13.20;;;11.07;;
635;SDS011;302;50.206;8.196;2023-12-07T04:19:35;15.70;;;10.80;;
635;SDS011;302;50.206;8.196;2023-12-07T04:22:00;13.20;;;10.53;;
635;SDS011;302;50.206;8.196;2023-12-07T04:24:25;13.80;;;10.80;;
635;SDS011;302;50.206;8.196;2023-12-07T04:26:51;13.75;;;11.93;;
635;SDS011;302;50.206;8.196;2023-12-07T04:29:16;14.68;;;10.90;;
635;SDS011;302;50.206;8.196;2023-12-07T04:31:41;12.03;;;10.30;;
635;SDS011;302;50.206;8.196;2023-12-07T04:34:06;13.37;;;10.60;;
635;SDS011;302;50.206;8.196;2023-12-07T04:36:31;11.25;;;10.15;;
635;SDS011;302;50.206;8.196;2023-12-07T04:38:56;13.97;;;10.70;;
635;SDS011;302;50.206;8.196;2023-12-07T04:41:22;13.33;;;10.50;;
635;SDS011;302;50.206;8.196;2023-12-07T04:43:47;13.15;;;10.80;;
635;SDS011;302;50.206;8.196;2023-12-07T04:46:12;15.33;;;11.50;;
635;SDS011;302;50.206;8.196;2023-12-07T04:48:37;13.30;;;11.30;;
635;SDS011;302;50.206;8.196;2023-12-07T04:51:02;13.02;;;10.70;;
635;SDS011;302;50.206;8.196;2023-12-07T04:53:28;13.67;;;11.13;;
635;SDS011;302;50.206;8.196;2023-12-07T04:55:53;12.63;;;10.98;;
635;SDS011;302;50.206;8.196;2023-12-07T04:58:18;15.17;;;12.10;;
635;SDS011;302;50.206;8.196;2023-12-07T05:00:43;14.27;;;11.60;;
635;SDS011;302;50.206;8.196;2023-12-07T05:03:08;15.43;;;11.47;;
635;SDS011;302;50.206;8.196;2023-12-07T05:05:34;14.27;;;12.70;;
635;SDS011;302;50.206;8.196;2023-12-07T05:07:59;12.57;;;11.25;;
635;SDS011;302;50.206;8.196;2023-12-07T05:10:24;13.18;;;11.45;;
635;SDS011;302;50.206;8.196;2023-12-07T05:12:49;17.48;;;12.13;;
635;SDS011;302;50.206;8.196;2023-12-07T05:15:15;16.73;;;11.30;;
635;SDS011;302;50.206;8.196;2023-12-07T05:17:40;16.23;;;12.20;;
635;SDS011;302;50.206;8.196;2023-12-07T05:20:05;15.50;;;12.70;;
635;SDS011;302;50.206;8.196;2023-12-07T05:22:32;19.15;;;13.48;;
635;SDS011;302;50.206;8.196;2023-12-07T05:24:57;14.15;;;11.38;;
635;SDS011;302;50.206;8.196;2023-12-07T05:27:22;17.53;;;11.87;;
635;SDS011;302;50.206;8.196;2023-12-07T05:29:47;15.90;;;12.30;;
635;SDS011;302;50.206;8.196;2023-12-07T05:32:12;15.63;;;13.33;;
635;SDS011;302;50.206;8.196;2023-12-07T05:34:37;19.23;;;11.77;;
635;SDS011;302;50.206;8.196;2023-12-07T05:37:03;15.97;;;11.37;;
635;SDS011;302;50.206;8.196;2023-12-07T05:39:29;15.77;;;12.20;;
635;SDS011;302;50.206;8.196;2023-12-07T05:41:54;13.55;;;11.77;;
635;SDS011;302;50.206;8.196;2023-12-07T05:44:19;17.23;;;12.60;;
635;SDS011;302;50.206;8.196;2023-12-07T05:46:46;17.70;;;13.70;;
635;SDS011;302;50.206;8.196;2023-12-07T05:49:12;20.70;;;13.90;;
635;SDS011;302;50.206;8.196;2023-12-07T05:51:37;18.83;;;14.20;;
635;SDS011;302;50.206;8.196;2023-12-07T05:54:03;19.87;;;13.37;;
635;SDS011;302;50.206;8.196;2023-12-07T05:56:28;16.13;;;12.60;;
635;SDS011;302;50.206;8.196;2023-12-07T05:58:53;17.03;;;14.03;;
635;SDS011;302;50.206;8.196;2023-12-07T06:01:19;17.13;;;13.47;;
635;SDS011;302;50.206;8.196;2023-12-07T06:03:44;17.88;;;14.13;;
635;SDS011;302;50.206;8.196;2023-12-07T06:06:09;19.73;;;14.90;;
635;SDS011;302;50.206;8.196;2023-12-07T06:08:36;22.10;;;17.10;;
635;SDS011;302;50.206;8.196;2023-12-07T06:11:01;21.60;;;16.20;;
635;SDS011;302;50.206;8.196;2023-12-07T06:13:26;23.00;;;17.50;;
635;SDS011;302;50.206;8.196;2023-12-07T06:15:52;23.23;;;16.30;;
635;SDS011;302;50.206;8.196;2023-12-07T06:18:17;20.03;;;16.70;;
635;SDS011;302;50.206;8.196;2023-12-07T06:20:42;23.50;;;16.17;;
635;SDS011;302;50.206;8.196;2023-12-07T06:23:08;19.80;;;16.47;;
635;SDS011;302;50.206;8.196;2023-12-07T06:25:37;23.48;;;18.30;;
635;SDS011;302;50.206;8.196;2023-12-07T06:28:02;24.07;;;18.50;;
635;SDS011;302;50.206;8.196;2023-12-07T06:30:28;25.93;;;18.50;;
635;SDS011;302;50.206;8.196;2023-12-07T06:32:53;30.63;;;20.40;;
635;SDS011;302;50.206;8.196;2023-12-07T06:35:19;32.73;;;21.20;;
635;SDS011;302;50.206;8.196;2023-12-07T06:37:44;27.40;;;19.87;;
635;SDS011;302;50.206;8.196;2023-12-07T06:40:09;32.30;;;17.10;;
635;SDS011;302;50.206;8.196;2023-12-07T06:42:35;33.73;;;16.73;;
635;SDS011;302;50.206;8.196;2023-12-07T06:45:00;22.20;;;13.60;;
635;SDS011;302;50.206;8.196;2023-12-07T06:47:27;19.52;;;12.23;;
635;SDS011;302;50.206;8.196;2023-12-07T06:49:52;21.00;;;13.10;;
635;SDS011;302;50.206;8.196;2023-12-07T06:52:17;25.92;;;12.40;;
635;SDS011;302;50.206;8.196;2023-12-07T06:54:42;25.77;;;13.40;;
635;SDS011;302;50.206;8.196;2023-12-07T06:57:08;20.50;;;12.77;;
635;SDS011;302;50.206;8.196;2023-12-07T06:59:33;17.27;;;12.60;;
635;SDS011;302;50.206;8.196;2023-12-07T07:01:58;25.73;;;13.60;;
635;SDS011;302;50.206;8.196;2023-12-07T07:04:23;16.50;;;11.43;;
635;SDS011;302;50.206;8.196;2023-12-07T07:06:48;22.23;;;12.03;;
635;SDS011;302;50.206;8.196;2023-12-07T07:09:14;33.50;;;12.80;;
635;SDS011;302;50.206;8.196;2023-12-07T07:11:40;18.25;;;10.77;;
635;SDS011;302;50.206;8.196;2023-12-07T07:14:05;23.17;;;11.90;;
635;SDS011;302;50.206;8.196;2023-12-07T07:16:31;23.37;;;11.23;;
635;SDS011;302;50.206;8.196;2023-12-07T07:18:56;23.88;;;12.02;;
635;SDS011;302;50.206;8.196;2023-12-07T07:21:21;18.90;;;9.50;;
635;SDS011;302;50.206;8.196;2023-12-07T07:23:46;26.43;;;11.73;;
635;SDS011;302;50.206;8.196;2023-12-07T07:26:12;15.93;;;9.43;;
635;SDS011;302;50.206;8.196;2023-12-07T07:28:42;25.45;;;11.65;;
635;SDS011;302;50.206;8.196;2023-12-07T07:31:07;26.70;;;10.70;;
635;SDS011;302;50.206;8.196;2023-12-07T07:33:32;15.00;;;9.30;;
635;SDS011;302;50.206;8.196;2023-12-07T07:35:57;22.43;;;10.10;;
635;SDS011;302;50.206;8.196;2023-12-07T07:38:22;21.35;;;10.07;;
635;SDS011;302;50.206;8.196;2023-12-07T07:40:48;17.43;;;10.00;;
635;SDS011;302;50.206;8.196;2023-12-07T07:43:13;18.40;;;9.87;;
635;SDS011;302;50.206;8.196;2023-12-07T07:45:39;11.27;;;8.30;;
635;SDS011;302;50.206;8.196;2023-12-07T07:48:04;15.20;;;9.40;;
635;SDS011;302;50.206;8.196;2023-12-07T07:50:29;12.87;;;8.43;;
635;SDS011;302;50.206;8.196;2023-12-07T07:52:54;13.53;;;8.63;;
635;SDS011;302;50.206;8.196;2023-12-07T07:55:20;12.40;;;9.70;;
635;SDS011;302;50.206;8.196;2023-12-07T07:57:45;12.33;;;9.00;;
635;SDS011;302;50.206;8.196;2023-12-07T08:00:10;10.60;;;8.40;;
635;SDS011;302;50.206;8.196;2023-12-07T08:02:35;13.33;;;9.60;;
635;SDS011;302;50.206;8.196;2023-12-07T08:05:04;26.60;;;11.45;;
635;SDS011;302;50.206;8.196;2023-12-07T08:07:29;18.97;;;10.70;;
635;SDS011;302;50.206;8.196;2023-12-07T08:09:54;27.63;;;15.33;;
635;SDS011;302;50.206;8.196;2023-12-07T08:12:19;28.33;;;15.98;;
635;SDS011;302;50.206;8.196;2023-12-07T08:14:44;34.90;;;18.13;;
635;SDS011;302;50.206;8.196;2023-12-07T08:17:11;29.95;;;17.15;;
635;SDS011;302;50.206;8.196;2023-12-07T08:19:36;28.70;;;17.10;;
635;SDS011;302;50.206;8.196;2023-12-07T08:22:02;32.55;;;18.17;;
635;SDS011;302;50.206;8.196;2023-12-07T08:24:28;32.40;;;17.77;;
635;SDS011;302;50.206;8.196;2023-12-07T08:26:53;47.77;;;19.57;;
635;SDS011;302;50.206;8.196;2023-12-07T08:29:18;35.38;;;18.48;;
635;SDS011;302;50.206;8.196;2023-12-07T08:31:43;25.60;;;16.33;;
635;SDS011;302;50.206;8.196;2023-12-07T08:34:09;24.90;;;17.33;;
635;SDS011;302;50.206;8.196;2023-12-07T08:36:34;18.70;;;13.70;;
635;SDS011;302;50.206;8.196;2023-12-07T08:38:59;19.83;;;14.53;;
635;SDS011;302;50.206;8.196;2023-12-07T08:41:24;19.60;;;16.10;;
635;SDS011;302;50.206;8.196;2023-12-07T08:43:50;21.80;;;15.50;;
635;SDS011;302;50.206;8.196;2023-12-07T08:46:15;17.63;;;13.57;;
635;SDS011;302;50.206;8.196;2023-12-07T08:48:40;19.60;;;14.50;;
635;SDS011;302;50.206;8.196;2023-12-07T08:51:06;18.50;;;13.67;;
635;SDS011;302;50.206;8.196;2023-12-07T08:53:33;17.02;;;13.63;;
635;SDS011;302;50.206;8.196;2023-12-07T08:55:58;18.73;;;14.30;;
635;SDS011;302;50.206;8.196;2023-12-07T08:58:23;20.83;;;14.93;;
635;SDS011;302;50.206;8.196;2023-12-07T09:00:48;21.90;;;17.80;;
635;SDS011;302;50.206;8.196;2023-12-07T09:03:14;33.90;;;25.07;;
635;SDS011;302;50.206;8.196;2023-12-07T09:05:39;30.75;;;25.67;;
635;SDS011;302;50.206;8.196;2023-12-07T09:08:04;34.20;;;27.20;;
635;SDS011;302;50.206;8.196;2023-12-07T09:10:30;27.60;;;22.57;;
635;SDS011;302;50.206;8.196;2023-12-07T09:12:55;26.45;;;19.35;;
635;SDS011;302;50.206;8.196;2023-12-07T09:15:20;21.40;;;16.90;;
635;SDS011;302;50.206;8.196;2023-12-07T09:17:46;18.00;;;14.97;;
635;SDS011;302;50.206;8.196;2023-12-07T09:20:13;16.55;;;12.93;;
635;SDS011;302;50.206;8.196;2023-12-07T09:22:42;15.40;;;12.80;;
635;SDS011;302;50.206;8.196;2023-12-07T09:25:08;20.33;;;13.48;;
635;SDS011;302;50.206;8.196;2023-12-07T09:27:34;17.67;;;12.80;;
635;SDS011;302;50.206;8.196;2023-12-07T09:30:00;19.50;;;15.63;;
635;SDS011;302;50.206;8.196;2023-12-07T09:32:25;18.07;;;14.27;;
635;SDS011;302;50.206;8.196;2023-12-07T09:34:52;16.27;;;13.80;;
635;SDS011;302;50.206;8.196;2023-12-07T09:37:18;21.77;;;15.70;;
635;SDS011;302;50.206;8.196;2023-12-07T09:39:44;20.55;;;14.15;;
635;SDS011;302;50.206;8.196;2023-12-07T09:42:09;21.20;;;14.68;;
635;SDS011;302;50.206;8.196;2023-12-07T09:44:34;18.33;;;14.60;;
635;SDS011;302;50.206;8.196;2023-12-07T09:46:59;17.07;;;13.43;;
635;SDS011;302;50.206;8.196;2023-12-07T09:49:24;21.27;;;14.10;;
635;SDS011;302;50.206;8.196;2023-12-07T09:51:50;21.20;;;17.80;;
635;SDS011;302;50.206;8.196;2023-12-07T09:54:15;17.20;;;12.87;;
635;SDS011;302;50.206;8.196;2023-12-07T09:56:41;17.97;;;13.67;;
635;SDS011;302;50.206;8.196;2023-12-07T09:59:06;15.87;;;12.20;;
635;SDS011;302;50.206;8.196;2023-12-07T10:01:32;19.40;;;13.17;;
635;SDS011;302;50.206;8.196;2023-12-07T10:06:42;17.33;;;13.32;;
635;SDS011;302;50.206;8.196;2023-12-07T10:09:07;15.85;;;12.30;;
635;SDS011;302;50.206;8.196;2023-12-07T10:11:32;14.38;;;12.02;;
635;SDS011;302;50.206;8.196;2023-12-07T10:13:58;20.47;;;17.47;;
635;SDS011;302;50.206;8.196;2023-12-07T10:16:23;21.90;;;16.00;;
635;SDS011;302;50.206;8.196;2023-12-07T10:18:48;28.07;;;25.47;;
635;SDS011;302;50.206;8.196;2023-12-07T10:21:14;18.75;;;16.70;;
635;SDS011;302;50.206;8.196;2023-12-07T10:23:40;19.70;;;13.97;;
635;SDS011;302;50.206;8.196;2023-12-07T10:26:06;17.85;;;14.38;;
635;SDS011;302;50.206;8.196;2023-12-07T10:28:33;18.10;;;16.20;;
635;SDS011;302;50.206;8.196;2023-12-07T10:30:58;15.05;;;12.52;;
635;SDS011;302;50.206;8.196;2023-12-07T10:33:25;17.63;;;13.87;;
635;SDS011;302;50.206;8.196;2023-12-07T10:35:50;16.92;;;12.52;;
635;SDS011;302;50.206;8.196;2023-12-07T10:38:15;15.60;;;12.60;;
635;SDS011;302;50.206;8.196;2023-12-07T10:40:41;20.50;;;12.80;;
635;SDS011;302;50.206;8.196;2023-12-07T10:43:07;21.37;;;14.53;;
635;SDS011;302;50.206;8.196;2023-12-07T10:45:32;17.65;;;14.30;;
635;SDS011;302;50.206;8.196;2023-12-07T10:48:02;18.58;;;13.48;;
635;SDS011;302;50.206;8.196;2023-12-07T10:50:29;18.25;;;13.23;;
635;SDS011;302;50.206;8.196;2023-12-07T10:52:56;20.25;;;14.10;;
635;SDS011;302;50.206;8.196;2023-12-07T10:55:24;18.52;;;14.00;;
635;SDS011;302;50.206;8.196;2023-12-07T10:57:53;17.40;;;13.07;;
635;SDS011;302;50.206;8.196;2023-12-07T11:00:20;17.60;;;13.93;;
635;SDS011;302;50.206;8.196;2023-12-07T11:02:48;17.65;;;12.60;;
635;SDS011;302;50.206;8.196;2023-12-07T11:05:14;16.63;;;13.23;;
635;SDS011;302;50.206;8.196;2023-12-07T11:07:42;18.20;;;14.33;;
635;SDS011;302;50.206;8.196;2023-12-07T11:10:12;19.83;;;14.38;;
635;SDS011;302;50.206;8.196;2023-12-07T11:15:10;14.75;;;12.70;;
635;SDS011;302;50.206;8.196;2023-12-07T11:17:53;16.63;;;13.23;;
635;SDS011;302;50.206;8.196;2023-12-07T11:20:19;19.00;;;13.80;;
635;SDS011;302;50.206;8.196;2023-12-07T11:22:44;14.27;;;11.95;;
635;SDS011;302;50.206;8.196;2023-12-07T11:25:10;16.53;;;13.27;;
635;SDS011;302;50.206;8.196;2023-12-07T11:27:35;19.07;;;14.10;;
635;SDS011;302;50.206;8.196;2023-12-07T11:30:01;16.33;;;12.87;;
635;SDS011;302;50.206;8.196;2023-12-07T11:32:27;14.23;;;12.18;;
635;SDS011;302;50.206;8.196;2023-12-07T11:34:52;16.70;;;13.40;;
635;SDS011;302;50.206;8.196;2023-12-07T11:37:17;16.33;;;12.57;;
635;SDS011;302;50.206;8.196;2023-12-07T11:39:42;14.70;;;12.00;;
635;SDS011;302;50.206;8.196;2023-12-07T11:42:26;16.67;;;12.23;;
635;SDS011;302;50.206;8.196;2023-12-07T11:44:51;15.98;;;11.93;;
635;SDS011;302;50.206;8.196;2023-12-07T11:47:18;15.80;;;12.13;;
635;SDS011;302;50.206;8.196;2023-12-07T11:49:43;11.38;;;9.40;;
635;SDS011;302;50.206;8.196;2023-12-07T11:52:12;13.10;;;11.30;;
635;SDS011;302;50.206;8.196;2023-12-07T11:54:38;13.52;;;10.75;;
635;SDS011;302;50.206;8.196;2023-12-07T11:57:03;11.03;;;9.87;;
635;SDS011;302;50.206;8.196;2023-12-07T11:59:28;13.50;;;10.57;;
635;SDS011;302;50.206;8.196;2023-12-07T12:01:53;12.10;;;10.30;;
635;SDS011;302;50.206;8.196;2023-12-07T12:04:19;12.63;;;10.40;;
635;SDS011;302;50.206;8.196;2023-12-07T12:06:46;12.30;;;10.80;;
635;SDS011;302;50.206;8.196;2023-12-07T12:09:12;11.77;;;10.47;;
635;SDS011;302;50.206;8.196;2023-12-07T12:11:37;13.10;;;10.30;;
635;SDS011;302;50.206;8.196;2023-12-07T12:14:02;13.27;;;10.67;;
635;SDS011;302;50.206;8.196;2023-12-07T12:16:28;12.10;;;10.80;;
635;SDS011;302;50.206;8.196;2023-12-07T12:18:53;13.10;;;10.47;;
635;SDS011;302;50.206;8.196;2023-12-07T12:21:19;13.43;;;10.93;;
635;SDS011;302;50.206;8.196;2023-12-07T12:23:46;12.60;;;10.65;;
635;SDS011;302;50.206;8.196;2023-12-07T12:26:12;11.65;;;10.38;;
635;SDS011;302;50.206;8.196;2023-12-07T12:28:38;12.67;;;10.30;;
635;SDS011;302;50.206;8.196;2023-12-07T12:31:07;13.35;;;11.05;;
635;SDS011;302;50.206;8.196;2023-12-07T12:33:32;14.17;;;11.23;;
635;SDS011;302;50.206;8.196;2023-12-07T12:36:02;15.13;;;11.60;;
635;SDS011;302;50.206;8.196;2023-12-07T12:38:28;15.55;;;12.40;;
635;SDS011;302;50.206;8.196;2023-12-07T12:40:54;12.67;;;11.37;;
635;SDS011;302;50.206;8.196;2023-12-07T12:43:19;15.80;;;11.00;;
635;SDS011;302;50.206;8.196;2023-12-07T12:45:44;16.50;;;12.33;;
635;SDS011;302;50.206;8.196;2023-12-07T12:48:10;13.10;;;11.15;;
635;SDS011;302;50.206;8.196;2023-12-07T12:50:39;15.63;;;12.05;;
635;SDS011;302;50.206;8.196;2023-12-07T12:53:05;14.50;;;12.10;;
635;SDS011;302;50.206;8.196;2023-12-07T12:55:32;15.95;;;11.88;;
635;SDS011;302;50.206;8.196;2023-12-07T12:57:58;19.10;;;13.15;;
635;SDS011;302;50.206;8.196;2023-12-07T13:00:24;14.90;;;11.87;;
635;SDS011;302;50.206;8.196;2023-12-07T13:02:49;13.55;;;9.90;;
635;SDS011;302;50.206;8.196;2023-12-07T13:05:15;17.17;;;12.20;;
635;SDS011;302;50.206;8.196;2023-12-07T13:07:40;12.87;;;11.10;;
635;SDS011;302;50.206;8.196;2023-12-07T13:10:05;15.02;;;11.95;;
635;SDS011;302;50.206;8.196;2023-12-07T13:12:33;13.80;;;11.68;;
635;SDS011;302;50.206;8.196;2023-12-07T13:15:00;14.23;;;11.57;;
635;SDS011;302;50.206;8.196;2023-12-07T13:17:25;12.67;;;10.50;;
635;SDS011;302;50.206;8.196;2023-12-07T13:19:51;12.80;;;10.30;;
635;SDS011;302;50.206;8.196;2023-12-07T13:22:16;11.70;;;10.50;;
635;SDS011;302;50.206;8.196;2023-12-07T13:24:41;14.00;;;10.93;;
635;SDS011;302;50.206;8.196;2023-12-07T13:27:06;17.40;;;10.80;;
635;SDS011;302;50.206;8.196;2023-12-07T13:29:32;14.13;;;10.60;;
635;SDS011;302;50.206;8.196;2023-12-07T13:31:57;12.53;;;10.30;;
635;SDS011;302;50.206;8.196;2023-12-07T13:34:23;13.87;;;10.03;;
635;SDS011;302;50.206;8.196;2023-12-07T13:36:48;18.65;;;16.73;;
635;SDS011;302;50.206;8.196;2023-12-07T13:39:14;15.20;;;11.38;;
635;SDS011;302;50.206;8.196;2023-12-07T13:41:39;12.90;;;9.55;;
635;SDS011;302;50.206;8.196;2023-12-07T13:44:04;12.25;;;9.35;;
635;SDS011;302;50.206;8.196;2023-12-07T13:46:30;12.97;;;9.17;;
635;SDS011;302;50.206;8.196;2023-12-07T13:48:56;13.70;;;9.98;;
635;SDS011;302;50.206;8.196;2023-12-07T13:51:22;13.10;;;9.20;;
635;SDS011;302;50.206;8.196;2023-12-07T13:53:48;14.20;;;9.90;;
635;SDS011;302;50.206;8.196;2023-12-07T13:56:13;15.80;;;12.47;;
635;SDS011;302;50.206;8.196;2023-12-07T13:58:39;16.90;;;12.03;;
635;SDS011;302;50.206;8.196;2023-12-07T14:01:04;21.02;;;15.98;;
635;SDS011;302;50.206;8.196;2023-12-07T14:03:30;16.17;;;11.80;;
635;SDS011;302;50.206;8.196;2023-12-07T14:05:55;15.50;;;11.20;;
635;SDS011;302;50.206;8.196;2023-12-07T14:08:20;13.80;;;10.40;;
635;SDS011;302;50.206;8.196;2023-12-07T14:10:45;15.50;;;11.20;;
635;SDS011;302;50.206;8.196;2023-12-07T14:13:11;15.73;;;9.80;;
635;SDS011;302;50.206;8.196;2023-12-07T14:15:36;13.10;;;9.23;;
635;SDS011;302;50.206;8.196;2023-12-07T14:18:01;13.83;;;9.70;;
635;SDS011;302;50.206;8.196;2023-12-07T14:20:30;15.35;;;13.15;;
635;SDS011;302;50.206;8.196;2023-12-07T14:22:56;11.63;;;8.57;;
635;SDS011;302;50.206;8.196;2023-12-07T14:25:21;15.00;;;11.03;;
635;SDS011;302;50.206;8.196;2023-12-07T14:27:46;11.98;;;9.05;;
635;SDS011;302;50.206;8.196;2023-12-07T14:30:11;13.03;;;9.20;;
635;SDS011;302;50.206;8.196;2023-12-07T14:32:37;13.70;;;9.60;;
635;SDS011;302;50.206;8.196;2023-12-07T14:35:02;13.93;;;9.02;;
635;SDS011;302;50.206;8.196;2023-12-07T14:37:27;12.30;;;9.03;;
635;SDS011;302;50.206;8.196;2023-12-07T14:39:52;13.97;;;10.50;;
635;SDS011;302;50.206;8.196;2023-12-07T14:42:18;14.83;;;10.63;;
635;SDS011;302;50.206;8.196;2023-12-07T14:44:43;13.87;;;11.50;;
635;SDS011;302;50.206;8.196;2023-12-07T14:47:08;12.00;;;9.10;;
635;SDS011;302;50.206;8.196;2023-12-07T14:49:33;11.80;;;8.93;;
635;SDS011;302;50.206;8.196;2023-12-07T14:51:59;12.17;;;9.43;;
635;SDS011;302;50.206;8.196;2023-12-07T14:54:25;10.38;;;8.15;;
635;SDS011;302;50.206;8.196;2023-12-07T14:56:50;10.97;;;8.67;;
635;SDS011;302;50.206;8.196;2023-12-07T14:59:15;11.80;;;9.13;;
635;SDS011;302;50.206;8.196;2023-12-07T15:01:41;18.00;;;15.00;;
635;SDS011;302;50.206;8.196;2023-12-07T15:04:07;64.05;;;51.75;;
635;SDS011;302;50.206;8.196;2023-12-07T15:06:32;25.67;;;22.93;;
635;SDS011;302;50.206;8.196;2023-12-07T15:08:58;14.90;;;12.20;;
635;SDS011;302;50.206;8.196;2023-12-07T15:11:23;13.50;;;10.37;;
635;SDS011;302;50.206;8.196;2023-12-07T15:13:48;15.20;;;11.07;;